sensor_id;sensor_type;location;lat;lon;timestamp;P1;durP1;ratioP1;P2;durP2;ratioP2
59016;SDS011;44800;55.600;38.134;2023-06-26T00:00:08;90.07;;;41.22;;
59016;SDS011;44800;55.600;38.134;2023-06-26T00:02:39;83.57;;;39.47;;
59016;SDS011;44800;55.600;38.134;2023-06-26T00:05:07;80.05;;;37.60;;
59016;SDS011;44800;55.600;38.134;2023-06-26T00:07:36;82.97;;;39.25;;
59016;SDS011;44800;55.600;38.134;2023-06-26T00:10:05;83.85;;;40.75;;
59016;SDS011;44800;55.600;38.134;2023-06-26T00:12:34;85.70;;;39.88;;
59016;SDS011;44800;55.600;38.134;2023-06-26T00:15:02;80.13;;;36.83;;
59016;SDS011;44800;55.600;38.134;2023-06-26T00:17:31;73.65;;;36.15;;
59016;SDS011;44800;55.600;38.134;2023-06-26T00:20:05;76.97;;;34.95;;
59016;SDS011;44800;55.600;38.134;2023-06-26T00:22:34;73.35;;;35.33;;
59016;SDS011;44800;55.600;38.134;2023-06-26T00:25:03;69.22;;;36.63;;
59016;SDS011;44800;55.600;38.134;2023-06-26T00:27:31;75.10;;;37.17;;
59016;SDS011;44800;55.600;38.134;2023-06-26T00:30:00;73.07;;;34.28;;
59016;SDS011;44800;55.600;38.134;2023-06-26T00:32:29;63.50;;;33.88;;
59016;SDS011;44800;55.600;38.134;2023-06-26T00:34:58;67.18;;;33.15;;
59016;SDS011;44800;55.600;38.134;2023-06-26T00:37:29;69.28;;;33.35;;
59016;SDS011;44800;55.600;38.134;2023-06-26T00:39:57;57.08;;;30.83;;
59016;SDS011;44800;55.600;38.134;2023-06-26T00:42:26;67.65;;;31.25;;
59016;SDS011;44800;55.600;38.134;2023-06-26T00:44:54;64.40;;;34.38;;
59016;SDS011;44800;55.600;38.134;2023-06-26T00:47:23;62.63;;;30.88;;
59016;SDS011;44800;55.600;38.134;2023-06-26T00:49:52;58.08;;;31.13;;
59016;SDS011;44800;55.600;38.134;2023-06-26T00:52:20;63.42;;;33.97;;
59016;SDS011;44800;55.600;38.134;2023-06-26T00:54:51;54.00;;;28.02;;
59016;SDS011;44800;55.600;38.134;2023-06-26T00:57:20;54.75;;;30.10;;
59016;SDS011;44800;55.600;38.134;2023-06-26T00:59:48;50.05;;;27.20;;
59016;SDS011;44800;55.600;38.134;2023-06-26T01:02:17;53.20;;;27.77;;
59016;SDS011;44800;55.600;38.134;2023-06-26T01:04:47;54.63;;;27.98;;
59016;SDS011;44800;55.600;38.134;2023-06-26T01:07:16;50.95;;;27.77;;
59016;SDS011;44800;55.600;38.134;2023-06-26T01:09:45;53.33;;;30.20;;
59016;SDS011;44800;55.600;38.134;2023-06-26T01:12:15;54.83;;;28.70;;
59016;SDS011;44800;55.600;38.134;2023-06-26T01:14:44;65.25;;;30.25;;
59016;SDS011;44800;55.600;38.134;2023-06-26T01:17:13;47.60;;;25.27;;
59016;SDS011;44800;55.600;38.134;2023-06-26T01:19:42;49.50;;;26.52;;
59016;SDS011;44800;55.600;38.134;2023-06-26T01:22:14;47.17;;;26.67;;
59016;SDS011;44800;55.600;38.134;2023-06-26T01:24:56;51.58;;;24.00;;
59016;SDS011;44800;55.600;38.134;2023-06-26T01:27:32;45.33;;;24.30;;
59016;SDS011;44800;55.600;38.134;2023-06-26T01:30:02;39.78;;;23.27;;
59016;SDS011;44800;55.600;38.134;2023-06-26T01:32:31;44.28;;;23.85;;
59016;SDS011;44800;55.600;38.134;2023-06-26T01:35:01;57.85;;;25.42;;
59016;SDS011;44800;55.600;38.134;2023-06-26T01:37:30;46.55;;;25.90;;
59016;SDS011;44800;55.600;38.134;2023-06-26T01:39:58;45.88;;;24.05;;
59016;SDS011;44800;55.600;38.134;2023-06-26T01:42:27;45.88;;;23.13;;
59016;SDS011;44800;55.600;38.134;2023-06-26T01:44:56;44.83;;;26.02;;
59016;SDS011;44800;55.600;38.134;2023-06-26T01:47:25;39.17;;;22.60;;
59016;SDS011;44800;55.600;38.134;2023-06-26T01:49:59;29.83;;;21.08;;
59016;SDS011;44800;55.600;38.134;2023-06-26T01:52:33;37.78;;;19.40;;
59016;SDS011;44800;55.600;38.134;2023-06-26T01:55:09;35.75;;;19.83;;
59016;SDS011;44800;55.600;38.134;2023-06-26T01:57:40;31.92;;;20.05;;
59016;SDS011;44800;55.600;38.134;2023-06-26T02:00:11;34.17;;;19.52;;
59016;SDS011;44800;55.600;38.134;2023-06-26T02:02:41;36.83;;;19.02;;
59016;SDS011;44800;55.600;38.134;2023-06-26T02:05:11;28.13;;;17.67;;
59016;SDS011;44800;55.600;38.134;2023-06-26T02:07:40;32.83;;;18.95;;
59016;SDS011;44800;55.600;38.134;2023-06-26T02:10:08;30.58;;;18.10;;
59016;SDS011;44800;55.600;38.134;2023-06-26T02:12:37;35.38;;;18.90;;
59016;SDS011;44800;55.600;38.134;2023-06-26T02:15:06;32.72;;;18.35;;
59016;SDS011;44800;55.600;38.134;2023-06-26T02:17:37;33.85;;;17.85;;
59016;SDS011;44800;55.600;38.134;2023-06-26T02:20:06;31.23;;;16.02;;
59016;SDS011;44800;55.600;38.134;2023-06-26T02:22:36;34.53;;;18.02;;
59016;SDS011;44800;55.600;38.134;2023-06-26T02:25:05;32.63;;;17.23;;
59016;SDS011;44800;55.600;38.134;2023-06-26T02:27:34;36.25;;;17.55;;
59016;SDS011;44800;55.600;38.134;2023-06-26T02:30:02;33.17;;;16.52;;
59016;SDS011;44800;55.600;38.134;2023-06-26T02:32:31;34.38;;;16.77;;
59016;SDS011;44800;55.600;38.134;2023-06-26T02:35:01;33.35;;;16.75;;
59016;SDS011;44800;55.600;38.134;2023-06-26T02:37:30;35.70;;;18.65;;
59016;SDS011;44800;55.600;38.134;2023-06-26T02:39:58;32.20;;;16.20;;
59016;SDS011;44800;55.600;38.134;2023-06-26T02:42:29;35.35;;;17.48;;
59016;SDS011;44800;55.600;38.134;2023-06-26T02:44:59;40.78;;;19.25;;
59016;SDS011;44800;55.600;38.134;2023-06-26T02:47:29;28.35;;;17.30;;
59016;SDS011;44800;55.600;38.134;2023-06-26T02:49:58;31.67;;;17.33;;
59016;SDS011;44800;55.600;38.134;2023-06-26T02:52:27;32.65;;;17.35;;
59016;SDS011;44800;55.600;38.134;2023-06-26T02:54:56;30.75;;;17.50;;
59016;SDS011;44800;55.600;38.134;2023-06-26T02:57:24;22.75;;;15.07;;
59016;SDS011;44800;55.600;38.134;2023-06-26T02:59:53;29.85;;;16.27;;
59016;SDS011;44800;55.600;38.134;2023-06-26T03:02:21;25.90;;;16.05;;
59016;SDS011;44800;55.600;38.134;2023-06-26T03:04:49;31.52;;;15.45;;
59016;SDS011;44800;55.600;38.134;2023-06-26T03:07:19;40.95;;;19.65;;
59016;SDS011;44800;55.600;38.134;2023-06-26T03:09:49;43.30;;;17.92;;
59016;SDS011;44800;55.600;38.134;2023-06-26T03:12:18;30.02;;;16.02;;
59016;SDS011;44800;55.600;38.134;2023-06-26T03:14:46;31.13;;;16.48;;
59016;SDS011;44800;55.600;38.134;2023-06-26T03:17:14;25.65;;;15.93;;
59016;SDS011;44800;55.600;38.134;2023-06-26T03:19:43;26.35;;;15.13;;
59016;SDS011;44800;55.600;38.134;2023-06-26T03:22:11;30.20;;;16.02;;
59016;SDS011;44800;55.600;38.134;2023-06-26T03:24:40;30.02;;;16.45;;
59016;SDS011;44800;55.600;38.134;2023-06-26T03:27:10;27.92;;;18.38;;
59016;SDS011;44800;55.600;38.134;2023-06-26T03:29:38;28.80;;;16.40;;
59016;SDS011;44800;55.600;38.134;2023-06-26T03:32:07;27.13;;;16.77;;
59016;SDS011;44800;55.600;38.134;2023-06-26T03:34:35;31.20;;;15.18;;
59016;SDS011;44800;55.600;38.134;2023-06-26T03:37:04;35.97;;;16.75;;
59016;SDS011;44800;55.600;38.134;2023-06-26T03:39:32;28.45;;;15.95;;
59016;SDS011;44800;55.600;38.134;2023-06-26T03:42:01;22.90;;;11.77;;
59016;SDS011;44800;55.600;38.134;2023-06-26T03:44:31;27.55;;;15.45;;
59016;SDS011;44800;55.600;38.134;2023-06-26T03:47:00;30.30;;;14.00;;
59016;SDS011;44800;55.600;38.134;2023-06-26T03:49:28;24.88;;;14.10;;
59016;SDS011;44800;55.600;38.134;2023-06-26T03:51:56;21.05;;;12.30;;
59016;SDS011;44800;55.600;38.134;2023-06-26T03:54:25;27.02;;;13.18;;
59016;SDS011;44800;55.600;38.134;2023-06-26T03:56:53;25.73;;;14.07;;
59016;SDS011;44800;55.600;38.134;2023-06-26T03:59:22;20.50;;;11.55;;
59016;SDS011;44800;55.600;38.134;2023-06-26T04:01:51;22.95;;;12.23;;
59016;SDS011;44800;55.600;38.134;2023-06-26T04:04:20;20.23;;;12.15;;
59016;SDS011;44800;55.600;38.134;2023-06-26T04:06:48;20.73;;;10.75;;
59016;SDS011;44800;55.600;38.134;2023-06-26T04:09:17;16.70;;;10.13;;
59016;SDS011;44800;55.600;38.134;2023-06-26T04:11:45;22.45;;;11.20;;
59016;SDS011;44800;55.600;38.134;2023-06-26T04:14:14;16.60;;;10.75;;
59016;SDS011;44800;55.600;38.134;2023-06-26T04:16:43;14.68;;;9.55;;
59016;SDS011;44800;55.600;38.134;2023-06-26T04:19:13;16.50;;;10.70;;
59016;SDS011;44800;55.600;38.134;2023-06-26T04:21:41;20.73;;;11.25;;
59016;SDS011;44800;55.600;38.134;2023-06-26T04:24:10;14.23;;;9.52;;
59016;SDS011;44800;55.600;38.134;2023-06-26T04:26:41;15.10;;;9.43;;
59016;SDS011;44800;55.600;38.134;2023-06-26T04:29:09;17.70;;;10.50;;
59016;SDS011;44800;55.600;38.134;2023-06-26T04:31:38;16.13;;;9.90;;
59016;SDS011;44800;55.600;38.134;2023-06-26T04:34:06;34.00;;;10.40;;
59016;SDS011;44800;55.600;38.134;2023-06-26T04:36:36;11.65;;;8.57;;
59016;SDS011;44800;55.600;38.134;2023-06-26T04:39:05;13.43;;;8.73;;
59016;SDS011;44800;55.600;38.134;2023-06-26T04:41:33;15.93;;;9.32;;
59016;SDS011;44800;55.600;38.134;2023-06-26T04:44:02;12.30;;;8.38;;
59016;SDS011;44800;55.600;38.134;2023-06-26T04:46:31;17.10;;;9.05;;
59016;SDS011;44800;55.600;38.134;2023-06-26T04:48:59;15.00;;;8.75;;
59016;SDS011;44800;55.600;38.134;2023-06-26T04:51:30;14.90;;;8.23;;
59016;SDS011;44800;55.600;38.134;2023-06-26T04:53:59;14.77;;;8.93;;
59016;SDS011;44800;55.600;38.134;2023-06-26T04:56:28;10.25;;;8.07;;
59016;SDS011;44800;55.600;38.134;2023-06-26T04:58:57;13.20;;;8.45;;
59016;SDS011;44800;55.600;38.134;2023-06-26T05:01:25;9.98;;;6.68;;
59016;SDS011;44800;55.600;38.134;2023-06-26T05:03:56;9.70;;;7.50;;
59016;SDS011;44800;55.600;38.134;2023-06-26T05:06:24;10.20;;;7.18;;
59016;SDS011;44800;55.600;38.134;2023-06-26T05:08:52;12.05;;;8.00;;
59016;SDS011;44800;55.600;38.134;2023-06-26T05:11:22;25.77;;;7.25;;
59016;SDS011;44800;55.600;38.134;2023-06-26T05:13:50;12.60;;;6.63;;
59016;SDS011;44800;55.600;38.134;2023-06-26T05:16:19;9.38;;;6.72;;
59016;SDS011;44800;55.600;38.134;2023-06-26T05:18:47;9.38;;;6.50;;
59016;SDS011;44800;55.600;38.134;2023-06-26T05:21:16;9.07;;;5.88;;
59016;SDS011;44800;55.600;38.134;2023-06-26T05:23:45;8.13;;;5.75;;
59016;SDS011;44800;55.600;38.134;2023-06-26T05:26:14;9.75;;;6.68;;
59016;SDS011;44800;55.600;38.134;2023-06-26T05:28:45;11.55;;;6.88;;
59016;SDS011;44800;55.600;38.134;2023-06-26T05:31:15;8.55;;;6.47;;
59016;SDS011;44800;55.600;38.134;2023-06-26T05:33:44;10.02;;;6.63;;
59016;SDS011;44800;55.600;38.134;2023-06-26T05:36:13;11.95;;;6.57;;
59016;SDS011;44800;55.600;38.134;2023-06-26T05:38:44;9.02;;;6.00;;
59016;SDS011;44800;55.600;38.134;2023-06-26T05:41:13;9.13;;;6.90;;
59016;SDS011;44800;55.600;38.134;2023-06-26T05:43:41;13.55;;;6.88;;
59016;SDS011;44800;55.600;38.134;2023-06-26T05:46:11;12.25;;;7.10;;
59016;SDS011;44800;55.600;38.134;2023-06-26T05:48:39;10.98;;;6.70;;
59016;SDS011;44800;55.600;38.134;2023-06-26T05:51:08;10.98;;;7.25;;
59016;SDS011;44800;55.600;38.134;2023-06-26T05:53:37;9.05;;;6.90;;
59016;SDS011;44800;55.600;38.134;2023-06-26T05:56:06;10.07;;;6.93;;
59016;SDS011;44800;55.600;38.134;2023-06-26T05:58:36;12.13;;;7.25;;
59016;SDS011;44800;55.600;38.134;2023-06-26T06:01:04;13.43;;;7.70;;
59016;SDS011;44800;55.600;38.134;2023-06-26T06:03:35;16.17;;;7.65;;
59016;SDS011;44800;55.600;38.134;2023-06-26T06:06:04;10.18;;;7.28;;
59016;SDS011;44800;55.600;38.134;2023-06-26T06:08:32;11.57;;;6.03;;
59016;SDS011;44800;55.600;38.134;2023-06-26T06:11:01;8.57;;;5.93;;
59016;SDS011;44800;55.600;38.134;2023-06-26T06:13:29;9.82;;;6.95;;
59016;SDS011;44800;55.600;38.134;2023-06-26T06:15:57;9.88;;;7.22;;
59016;SDS011;44800;55.600;38.134;2023-06-26T06:18:26;9.02;;;6.57;;
59016;SDS011;44800;55.600;38.134;2023-06-26T06:20:55;12.52;;;7.55;;
59016;SDS011;44800;55.600;38.134;2023-06-26T06:23:24;8.77;;;7.03;;
59016;SDS011;44800;55.600;38.134;2023-06-26T06:25:52;9.43;;;6.40;;
59016;SDS011;44800;55.600;38.134;2023-06-26T06:28:21;9.27;;;7.20;;
59016;SDS011;44800;55.600;38.134;2023-06-26T06:30:49;7.93;;;5.82;;
59016;SDS011;44800;55.600;38.134;2023-06-26T06:33:18;11.95;;;6.72;;
59016;SDS011;44800;55.600;38.134;2023-06-26T06:35:46;9.13;;;6.22;;
59016;SDS011;44800;55.600;38.134;2023-06-26T06:38:16;9.07;;;6.35;;
59016;SDS011;44800;55.600;38.134;2023-06-26T06:40:44;9.52;;;7.38;;
59016;SDS011;44800;55.600;38.134;2023-06-26T06:43:13;9.20;;;6.60;;
59016;SDS011;44800;55.600;38.134;2023-06-26T06:45:41;12.85;;;7.22;;
59016;SDS011;44800;55.600;38.134;2023-06-26T06:48:09;9.05;;;7.30;;
59016;SDS011;44800;55.600;38.134;2023-06-26T06:50:38;9.32;;;6.95;;
59016;SDS011;44800;55.600;38.134;2023-06-26T06:53:07;9.90;;;7.10;;
59016;SDS011;44800;55.600;38.134;2023-06-26T06:55:37;9.00;;;6.20;;
59016;SDS011;44800;55.600;38.134;2023-06-26T06:58:06;9.10;;;6.95;;
59016;SDS011;44800;55.600;38.134;2023-06-26T07:00:34;8.82;;;6.97;;
59016;SDS011;44800;55.600;38.134;2023-06-26T07:03:03;11.98;;;7.63;;
59016;SDS011;44800;55.600;38.134;2023-06-26T07:05:31;9.10;;;6.25;;
59016;SDS011;44800;55.600;38.134;2023-06-26T07:08:00;9.70;;;7.43;;
59016;SDS011;44800;55.600;38.134;2023-06-26T07:10:29;15.35;;;7.25;;
59016;SDS011;44800;55.600;38.134;2023-06-26T07:12:59;9.73;;;6.97;;
59016;SDS011;44800;55.600;38.134;2023-06-26T07:15:27;10.90;;;8.07;;
59016;SDS011;44800;55.600;38.134;2023-06-26T07:17:56;10.85;;;6.55;;
59016;SDS011;44800;55.600;38.134;2023-06-26T07:20:24;8.77;;;7.03;;
59016;SDS011;44800;55.600;38.134;2023-06-26T07:22:52;9.98;;;7.38;;
59016;SDS011;44800;55.600;38.134;2023-06-26T07:25:21;10.02;;;7.68;;
59016;SDS011;44800;55.600;38.134;2023-06-26T07:27:49;7.82;;;6.38;;
59016;SDS011;44800;55.600;38.134;2023-06-26T07:30:19;14.60;;;7.80;;
59016;SDS011;44800;55.600;38.134;2023-06-26T07:32:48;11.73;;;8.20;;
59016;SDS011;44800;55.600;38.134;2023-06-26T07:35:16;10.65;;;7.60;;
59016;SDS011;44800;55.600;38.134;2023-06-26T07:37:45;10.38;;;7.32;;
59016;SDS011;44800;55.600;38.134;2023-06-26T07:40:13;10.48;;;7.47;;
59016;SDS011;44800;55.600;38.134;2023-06-26T07:42:45;11.95;;;6.50;;
59016;SDS011;44800;55.600;38.134;2023-06-26T07:45:14;10.73;;;7.43;;
59016;SDS011;44800;55.600;38.134;2023-06-26T07:47:44;12.05;;;7.63;;
59016;SDS011;44800;55.600;38.134;2023-06-26T07:50:12;11.48;;;7.43;;
59016;SDS011;44800;55.600;38.134;2023-06-26T07:52:45;9.95;;;7.45;;
59016;SDS011;44800;55.600;38.134;2023-06-26T07:55:14;12.88;;;7.63;;
59016;SDS011;44800;55.600;38.134;2023-06-26T07:57:42;10.27;;;7.20;;
59016;SDS011;44800;55.600;38.134;2023-06-26T08:00:13;8.60;;;7.35;;
59016;SDS011;44800;55.600;38.134;2023-06-26T08:02:44;8.85;;;6.90;;
59016;SDS011;44800;55.600;38.134;2023-06-26T08:05:12;9.43;;;7.82;;
59016;SDS011;44800;55.600;38.134;2023-06-26T08:07:41;10.13;;;8.27;;
59016;SDS011;44800;55.600;38.134;2023-06-26T08:10:09;9.27;;;6.75;;
59016;SDS011;44800;55.600;38.134;2023-06-26T08:12:38;9.75;;;7.13;;
59016;SDS011;44800;55.600;38.134;2023-06-26T08:15:09;9.30;;;7.20;;
59016;SDS011;44800;55.600;38.134;2023-06-26T08:17:37;9.68;;;7.63;;
59016;SDS011;44800;55.600;38.134;2023-06-26T08:20:08;19.55;;;7.80;;
59016;SDS011;44800;55.600;38.134;2023-06-26T08:22:37;10.77;;;7.93;;
59016;SDS011;44800;55.600;38.134;2023-06-26T08:25:06;13.05;;;7.93;;
59016;SDS011;44800;55.600;38.134;2023-06-26T08:27:34;12.63;;;8.48;;
59016;SDS011;44800;55.600;38.134;2023-06-26T08:30:03;9.13;;;7.05;;
59016;SDS011;44800;55.600;38.134;2023-06-26T08:32:33;9.27;;;6.97;;
59016;SDS011;44800;55.600;38.134;2023-06-26T08:35:01;10.65;;;7.78;;
59016;SDS011;44800;55.600;38.134;2023-06-26T08:37:31;13.25;;;7.68;;
59016;SDS011;44800;55.600;38.134;2023-06-26T08:39:59;16.33;;;9.85;;
59016;SDS011;44800;55.600;38.134;2023-06-26T08:42:28;10.57;;;7.28;;
59016;SDS011;44800;55.600;38.134;2023-06-26T08:44:57;14.57;;;7.65;;
59016;SDS011;44800;55.600;38.134;2023-06-26T08:47:29;10.35;;;7.78;;
59016;SDS011;44800;55.600;38.134;2023-06-26T08:50:01;10.27;;;6.72;;
59016;SDS011;44800;55.600;38.134;2023-06-26T08:52:35;8.98;;;7.57;;
59016;SDS011;44800;55.600;38.134;2023-06-26T08:55:06;11.88;;;7.95;;
59016;SDS011;44800;55.600;38.134;2023-06-26T08:57:37;10.85;;;7.38;;
59016;SDS011;44800;55.600;38.134;2023-06-26T09:00:06;12.82;;;7.97;;
59016;SDS011;44800;55.600;38.134;2023-06-26T09:02:36;12.45;;;7.97;;
59016;SDS011;44800;55.600;38.134;2023-06-26T09:05:05;12.57;;;7.65;;
59016;SDS011;44800;55.600;38.134;2023-06-26T09:07:35;10.85;;;7.00;;
59016;SDS011;44800;55.600;38.134;2023-06-26T09:10:04;9.25;;;6.80;;
59016;SDS011;44800;55.600;38.134;2023-06-26T09:12:33;11.32;;;8.13;;
59016;SDS011;44800;55.600;38.134;2023-06-26T09:15:02;10.65;;;7.72;;
59016;SDS011;44800;55.600;38.134;2023-06-26T09:17:32;9.10;;;6.65;;
59016;SDS011;44800;55.600;38.134;2023-06-26T09:20:01;10.18;;;8.05;;
59016;SDS011;44800;55.600;38.134;2023-06-26T09:22:33;12.60;;;7.53;;
59016;SDS011;44800;55.600;38.134;2023-06-26T09:25:04;9.32;;;6.88;;
59016;SDS011;44800;55.600;38.134;2023-06-26T09:27:33;10.90;;;7.38;;
59016;SDS011;44800;55.600;38.134;2023-06-26T09:30:02;9.63;;;7.47;;
59016;SDS011;44800;55.600;38.134;2023-06-26T09:32:33;12.25;;;8.18;;
59016;SDS011;44800;55.600;38.134;2023-06-26T09:35:03;12.35;;;7.88;;
59016;SDS011;44800;55.600;38.134;2023-06-26T09:37:32;10.88;;;7.20;;
59016;SDS011;44800;55.600;38.134;2023-06-26T09:40:02;19.98;;;8.15;;
59016;SDS011;44800;55.600;38.134;2023-06-26T09:42:31;12.23;;;8.15;;
59016;SDS011;44800;55.600;38.134;2023-06-26T09:44:59;14.15;;;8.38;;
59016;SDS011;44800;55.600;38.134;2023-06-26T09:47:30;12.20;;;8.35;;
59016;SDS011;44800;55.600;38.134;2023-06-26T09:49:58;12.63;;;8.18;;
59016;SDS011;44800;55.600;38.134;2023-06-26T09:52:27;10.95;;;7.80;;
59016;SDS011;44800;55.600;38.134;2023-06-26T09:55:08;13.15;;;8.32;;
59016;SDS011;44800;55.600;38.134;2023-06-26T09:57:37;12.05;;;7.75;;
59016;SDS011;44800;55.600;38.134;2023-06-26T10:00:06;12.15;;;7.15;;
59016;SDS011;44800;55.600;38.134;2023-06-26T10:02:36;11.07;;;8.52;;
59016;SDS011;44800;55.600;38.134;2023-06-26T10:05:05;11.02;;;7.90;;
59016;SDS011;44800;55.600;38.134;2023-06-26T10:07:34;11.15;;;7.85;;
59016;SDS011;44800;55.600;38.134;2023-06-26T10:10:04;14.65;;;8.15;;
59016;SDS011;44800;55.600;38.134;2023-06-26T10:12:35;13.05;;;8.30;;
59016;SDS011;44800;55.600;38.134;2023-06-26T10:15:03;11.40;;;7.35;;
59016;SDS011;44800;55.600;38.134;2023-06-26T10:17:34;10.55;;;6.97;;
59016;SDS011;44800;55.600;38.134;2023-06-26T10:20:03;13.20;;;8.45;;
59016;SDS011;44800;55.600;38.134;2023-06-26T10:22:37;15.05;;;9.23;;
59016;SDS011;44800;55.600;38.134;2023-06-26T10:25:10;13.63;;;8.88;;
59016;SDS011;44800;55.600;38.134;2023-06-26T10:27:43;13.68;;;8.32;;
59016;SDS011;44800;55.600;38.134;2023-06-26T10:30:16;14.55;;;7.55;;
59016;SDS011;44800;55.600;38.134;2023-06-26T10:32:47;11.77;;;7.82;;
59016;SDS011;44800;55.600;38.134;2023-06-26T10:35:17;14.82;;;8.50;;
59016;SDS011;44800;55.600;38.134;2023-06-26T10:37:46;13.73;;;9.77;;
59016;SDS011;44800;55.600;38.134;2023-06-26T10:40:20;12.88;;;7.93;;
59016;SDS011;44800;55.600;38.134;2023-06-26T10:42:51;14.25;;;7.03;;
59016;SDS011;44800;55.600;38.134;2023-06-26T10:45:34;11.80;;;7.88;;
59016;SDS011;44800;55.600;38.134;2023-06-26T10:48:03;9.73;;;6.72;;
59016;SDS011;44800;55.600;38.134;2023-06-26T10:50:34;12.05;;;7.80;;
59016;SDS011;44800;55.600;38.134;2023-06-26T10:53:11;9.85;;;7.15;;
59016;SDS011;44800;55.600;38.134;2023-06-26T10:55:49;10.50;;;6.47;;
59016;SDS011;44800;55.600;38.134;2023-06-26T10:58:30;10.10;;;6.70;;
59016;SDS011;44800;55.600;38.134;2023-06-26T11:01:17;10.85;;;7.07;;
59016;SDS011;44800;55.600;38.134;2023-06-26T11:03:47;17.65;;;8.18;;
59016;SDS011;44800;55.600;38.134;2023-06-26T11:06:18;11.98;;;7.18;;
59016;SDS011;44800;55.600;38.134;2023-06-26T11:08:47;10.30;;;7.45;;
59016;SDS011;44800;55.600;38.134;2023-06-26T11:11:18;13.93;;;8.32;;
59016;SDS011;44800;55.600;38.134;2023-06-26T11:13:47;12.32;;;8.00;;
59016;SDS011;44800;55.600;38.134;2023-06-26T11:16:16;11.27;;;7.60;;
59016;SDS011;44800;55.600;38.134;2023-06-26T11:18:45;10.98;;;7.60;;
59016;SDS011;44800;55.600;38.134;2023-06-26T11:21:13;11.88;;;8.13;;
59016;SDS011;44800;55.600;38.134;2023-06-26T11:23:41;16.60;;;8.15;;
59016;SDS011;44800;55.600;38.134;2023-06-26T11:26:13;10.45;;;7.35;;
59016;SDS011;44800;55.600;38.134;2023-06-26T11:28:50;12.43;;;7.40;;
59016;SDS011;44800;55.600;38.134;2023-06-26T11:31:28;11.70;;;7.30;;
59016;SDS011;44800;55.600;38.134;2023-06-26T11:33:58;9.35;;;7.20;;
59016;SDS011;44800;55.600;38.134;2023-06-26T11:36:28;12.57;;;7.57;;
59016;SDS011;44800;55.600;38.134;2023-06-26T11:38:57;10.10;;;7.00;;
59016;SDS011;44800;55.600;38.134;2023-06-26T11:41:27;11.93;;;7.47;;
59016;SDS011;44800;55.600;38.134;2023-06-26T11:44:01;12.15;;;7.95;;
59016;SDS011;44800;55.600;38.134;2023-06-26T11:46:30;11.65;;;7.75;;
59016;SDS011;44800;55.600;38.134;2023-06-26T11:48:59;15.48;;;7.70;;
59016;SDS011;44800;55.600;38.134;2023-06-26T11:51:28;12.02;;;8.02;;
59016;SDS011;44800;55.600;38.134;2023-06-26T11:53:57;11.88;;;7.93;;
59016;SDS011;44800;55.600;38.134;2023-06-26T11:56:29;11.93;;;8.20;;
59016;SDS011;44800;55.600;38.134;2023-06-26T11:58:58;14.35;;;7.43;;
59016;SDS011;44800;55.600;38.134;2023-06-26T12:01:32;11.73;;;7.88;;
59016;SDS011;44800;55.600;38.134;2023-06-26T12:04:02;12.63;;;7.80;;
59016;SDS011;44800;55.600;38.134;2023-06-26T12:06:31;14.00;;;8.70;;
59016;SDS011;44800;55.600;38.134;2023-06-26T12:09:02;11.38;;;7.53;;
59016;SDS011;44800;55.600;38.134;2023-06-26T12:11:31;12.68;;;8.20;;
59016;SDS011;44800;55.600;38.134;2023-06-26T12:14:01;13.55;;;8.07;;
59016;SDS011;44800;55.600;38.134;2023-06-26T12:16:33;11.68;;;8.55;;
59016;SDS011;44800;55.600;38.134;2023-06-26T12:19:02;15.38;;;9.07;;
59016;SDS011;44800;55.600;38.134;2023-06-26T12:21:43;13.10;;;7.78;;
59016;SDS011;44800;55.600;38.134;2023-06-26T12:24:14;15.18;;;9.18;;
59016;SDS011;44800;55.600;38.134;2023-06-26T12:26:43;11.85;;;8.85;;
59016;SDS011;44800;55.600;38.134;2023-06-26T12:29:14;11.93;;;8.35;;
59016;SDS011;44800;55.600;38.134;2023-06-26T12:31:45;12.23;;;8.15;;
59016;SDS011;44800;55.600;38.134;2023-06-26T12:34:18;14.75;;;8.13;;
59016;SDS011;44800;55.600;38.134;2023-06-26T12:36:48;16.38;;;8.13;;
59016;SDS011;44800;55.600;38.134;2023-06-26T12:39:18;13.48;;;8.32;;
59016;SDS011;44800;55.600;38.134;2023-06-26T12:41:47;13.88;;;7.93;;
59016;SDS011;44800;55.600;38.134;2023-06-26T12:44:18;11.95;;;7.03;;
59016;SDS011;44800;55.600;38.134;2023-06-26T12:46:48;12.57;;;7.93;;
59016;SDS011;44800;55.600;38.134;2023-06-26T12:49:17;11.07;;;7.95;;
59016;SDS011;44800;55.600;38.134;2023-06-26T12:51:48;11.68;;;8.20;;
59016;SDS011;44800;55.600;38.134;2023-06-26T12:54:16;13.05;;;7.03;;
59016;SDS011;44800;55.600;38.134;2023-06-26T12:56:45;12.80;;;8.63;;
59016;SDS011;44800;55.600;38.134;2023-06-26T12:59:13;18.63;;;7.95;;
59016;SDS011;44800;55.600;38.134;2023-06-26T13:01:43;14.88;;;8.23;;
59016;SDS011;44800;55.600;38.134;2023-06-26T13:04:11;13.23;;;8.25;;
59016;SDS011;44800;55.600;38.134;2023-06-26T13:06:40;16.92;;;9.10;;
59016;SDS011;44800;55.600;38.134;2023-06-26T13:09:09;12.40;;;8.02;;
59016;SDS011;44800;55.600;38.134;2023-06-26T13:11:38;12.98;;;7.93;;
59016;SDS011;44800;55.600;38.134;2023-06-26T13:14:06;13.85;;;8.32;;
59016;SDS011;44800;55.600;38.134;2023-06-26T13:16:37;11.65;;;7.68;;
59016;SDS011;44800;55.600;38.134;2023-06-26T13:19:07;12.77;;;7.50;;
59016;SDS011;44800;55.600;38.134;2023-06-26T13:21:36;12.38;;;8.43;;
59016;SDS011;44800;55.600;38.134;2023-06-26T13:24:04;14.68;;;8.88;;
59016;SDS011;44800;55.600;38.134;2023-06-26T13:26:33;11.15;;;7.80;;
59016;SDS011;44800;55.600;38.134;2023-06-26T13:29:03;13.70;;;8.13;;
59016;SDS011;44800;55.600;38.134;2023-06-26T13:31:32;13.25;;;8.45;;
59016;SDS011;44800;55.600;38.134;2023-06-26T13:34:01;12.77;;;8.25;;
59016;SDS011;44800;55.600;38.134;2023-06-26T13:36:33;14.02;;;8.23;;
59016;SDS011;44800;55.600;38.134;2023-06-26T13:39:02;13.05;;;8.52;;
59016;SDS011;44800;55.600;38.134;2023-06-26T13:41:31;13.48;;;8.93;;
59016;SDS011;44800;55.600;38.134;2023-06-26T13:43:59;13.80;;;8.80;;
59016;SDS011;44800;55.600;38.134;2023-06-26T13:46:31;16.67;;;9.27;;
59016;SDS011;44800;55.600;38.134;2023-06-26T13:49:00;15.23;;;8.73;;
59016;SDS011;44800;55.600;38.134;2023-06-26T13:51:28;16.77;;;9.90;;
59016;SDS011;44800;55.600;38.134;2023-06-26T13:53:58;14.00;;;8.93;;
59016;SDS011;44800;55.600;38.134;2023-06-26T13:56:27;15.07;;;9.40;;
59016;SDS011;44800;55.600;38.134;2023-06-26T13:58:57;14.55;;;8.80;;
59016;SDS011;44800;55.600;38.134;2023-06-26T14:01:26;15.02;;;8.55;;
59016;SDS011;44800;55.600;38.134;2023-06-26T14:03:55;11.02;;;7.15;;
59016;SDS011;44800;55.600;38.134;2023-06-26T14:06:24;10.85;;;7.55;;
59016;SDS011;44800;55.600;38.134;2023-06-26T14:08:52;11.95;;;7.03;;
59016;SDS011;44800;55.600;38.134;2023-06-26T14:11:22;15.95;;;7.82;;
59016;SDS011;44800;55.600;38.134;2023-06-26T14:13:52;13.40;;;9.48;;
59016;SDS011;44800;55.600;38.134;2023-06-26T14:16:20;17.05;;;8.85;;
59016;SDS011;44800;55.600;38.134;2023-06-26T14:18:48;13.93;;;8.48;;
59016;SDS011;44800;55.600;38.134;2023-06-26T14:21:17;17.05;;;8.60;;
59016;SDS011;44800;55.600;38.134;2023-06-26T14:23:45;14.98;;;8.30;;
59016;SDS011;44800;55.600;38.134;2023-06-26T14:26:14;15.82;;;8.85;;
59016;SDS011;44800;55.600;38.134;2023-06-26T14:28:44;15.00;;;9.40;;
59016;SDS011;44800;55.600;38.134;2023-06-26T14:31:13;16.80;;;9.00;;